Thurmont, MD

2:37 AM EST on January 26, 2015 (GMT -0500)
Fountain Dale | Change Station
CLOSE
Current Station
Airport
Location: Fountain Dale,
Elevation: 899 ft
Nearby Weather Stations
Active Advisory: Winter Weather Advisory

Elev 899 ft 39.73 °N, 77.43 °W | Updated 24 minutes ago

Snow
Snow
32 °F
Feels Like 26 °F
N
6
Wind Variable Wind from ENE

Today
High -- | Low -- °F
--% Chance of Precip.
Yesterday
High -- | Low -- °F
Precip. -- in
7:22 AM 5:22 PM
Waxing Crescent, 40% visible
Pressure 29.81 in
Visibility 1.8 miles
Clouds Overcast 400 ft
Windchill 26 °F
Dew Point 30 °F
Humidity 93%
Rainfall 0.05 in
Snow Depth Not available.
UV 0 out of 12
Pollen .10 out of 12
Air Quality Not available.
Flu Activity Not available.
SPECI KRYT 260713Z AUTO 07005KT 1 3/4SM -SN BR OVC004 00/M01 A2981 RMK AO2 P0001 $

More Conditions Fewer Conditions

Pressure 29.81 in
Visibility 1.8 miles
Clouds Overcast 400 ft
Windchill 26 °F
Dew Point 30 °F
Humidity 93%
Rainfall 0.05 in
Snow Depth Not available.
UV 0 out of 12
Pollen .10 out of 12
Air Quality Not available.
Flu Activity Not available.
SPECI KRYT 260713Z AUTO 07005KT 1 3/4SM -SN BR OVC004 00/M01 A2981 RMK AO2 P0001 $

More Conditions Fewer Conditions

10-Day Weather Forecast

Almanac

Astronomy

Jan. 26, 2015 Rise Set
Actual Time
Civil Twilight
Nautical Twilight
Astronomical Twilight
Moon
Length of Visible Light
Length of Day
Tomorrow will be .
, % of the Moon is Illuminated

Today's Extremes

State Highs State Lows

Community

WunderPhotos

Upload Photos

1,790,155 photos uploaded!

WunderBlogs® & News

Nearby

Air Quality

  Air Quality AQ Index Pollutant
Not available.

Snow Depth

Station Depth Elevation

Earthquake Activity

City Distance Mag. Time & Date
Minimum magnitude displayed is 2.5.

Coastal Water Temperatures

Place Temperature

Nearby Weather Stations